Time;durP1;ratioP1;P1;durP2;ratioP2;P2;SDS_P1;SDS_P2;PMS_P1;PMS_P2;Temp;Humidity;BMP_temperature;BMP_pressure;BME280_temperature;BME280_humidity;BME280_pressure;Samples;Min_cycle;Max_cycle;Signal;HPM_P1;HPM_P2
2022/03/22 00:00:23;;;;;;;0.10;0.10;;;;;;;;;;5081042;28;20047;-92
2022/03/22 00:02:49;;;;;;;0.10;0.10;;;;;;;;;;5114863;28;20036;-91
2022/03/22 00:05:15;;;;;;;0.10;0.10;;;;;;;;;;5097449;28;20084;-91
2022/03/22 00:07:42;;;;;;;0.10;0.10;;;;;;;;;;5097875;28;20040;-92
2022/03/22 00:10:08;;;;;;;0.17;0.17;;;;;;;;;;5097677;28;20130;-91
2022/03/22 00:12:35;;;;;;;0.15;0.15;;;;;;;;;;5081342;28;20280;-92
2022/03/22 00:15:01;;;;;;;0.10;0.10;;;;;;;;;;5097682;28;20089;-89
2022/03/22 00:17:27;;;;;;;0.10;0.10;;;;;;;;;;5097685;28;20043;-91
2022/03/22 00:19:53;;;;;;;0.10;0.10;;;;;;;;;;5097627;28;20071;-90
2022/03/22 00:22:19;;;;;;;0.38;0.10;;;;;;;;;;5097346;28;20487;-90
2022/03/22 00:24:45;;;;;;;0.10;0.10;;;;;;;;;;5114822;28;20044;-90
2022/03/22 00:27:11;;;;;;;0.10;0.10;;;;;;;;;;5097199;28;20028;-91
2022/03/22 00:29:37;;;;;;;0.10;0.10;;;;;;;;;;5096908;28;20043;-91
2022/03/22 00:32:06;;;;;;;0.10;0.10;;;;;;;;;;5080045;28;20039;-90
2022/03/22 00:34:32;;;;;;;0.40;0.40;;;;;;;;;;5097095;28;20079;-91
2022/03/22 00:36:58;;;;;;;0.10;0.10;;;;;;;;;;5097122;28;20100;-91
2022/03/22 00:39:25;;;;;;;0.10;0.10;;;;;;;;;;5114536;28;20051;-91
2022/03/22 00:41:52;;;;;;;0.10;0.10;;;;;;;;;;5080626;28;20040;-91
2022/03/22 00:44:18;;;;;;;0.10;0.10;;;;;;;;;;5097488;28;20044;-91
2022/03/22 00:46:44;;;;;;;0.20;0.20;;;;;;;;;;5097701;28;20380;-91
2022/03/22 00:49:10;;;;;;;0.10;0.10;;;;;;;;;;5097103;28;20478;-91
2022/03/22 00:51:36;;;;;;;0.10;0.10;;;;;;;;;;5114225;28;20045;-92
2022/03/22 00:54:03;;;;;;;0.10;0.10;;;;;;;;;;5097016;28;20071;-91
2022/03/22 00:56:29;;;;;;;0.10;0.10;;;;;;;;;;5096824;28;20040;-91
2022/03/22 01:01:40;;;;;;;0.10;0.10;;;;;;;;;;5099093;28;20067;-91
2022/03/22 01:04:06;;;;;;;0.10;0.10;;;;;;;;;;5080114;28;20087;-90
2022/03/22 01:06:33;;;;;;;0.20;0.20;;;;;;;;;;5096539;28;20040;-93
2022/03/22 01:08:59;;;;;;;0.10;0.10;;;;;;;;;;5080039;28;20474;-91
2022/03/22 01:11:25;;;;;;;0.10;0.10;;;;;;;;;;5096758;28;20038;-92
2022/03/22 01:13:51;;;;;;;0.10;0.10;;;;;;;;;;5096618;28;20039;-91
2022/03/22 01:16:17;;;;;;;0.10;0.10;;;;;;;;;;5096525;28;20050;-92
2022/03/22 01:18:43;;;;;;;0.28;0.28;;;;;;;;;;5095767;28;20043;-92
2022/03/22 01:21:10;;;;;;;0.10;0.10;;;;;;;;;;5096653;28;20407;-92
2022/03/22 01:23:36;;;;;;;0.10;0.10;;;;;;;;;;5115199;28;20106;-90
2022/03/22 01:26:02;;;;;;;0.10;0.10;;;;;;;;;;5098719;28;20111;-92
2022/03/22 01:28:28;;;;;;;0.10;0.10;;;;;;;;;;5081795;28;20036;-91
2022/03/22 01:30:54;;;;;;;0.10;0.10;;;;;;;;;;5080368;28;20085;-92
2022/03/22 01:33:20;;;;;;;0.10;0.10;;;;;;;;;;5096678;28;20039;-92
2022/03/22 01:35:46;;;;;;;0.10;0.10;;;;;;;;;;5080147;28;20499;-92
2022/03/22 01:38:13;;;;;;;0.45;0.20;;;;;;;;;;5113917;28;20368;-92
2022/03/22 01:40:42;;;;;;;0.10;0.10;;;;;;;;;;5079855;28;20035;-91
2022/03/22 01:43:08;;;;;;;0.10;0.10;;;;;;;;;;5113307;28;20040;-91
2022/03/22 01:45:34;;;;;;;0.10;0.10;;;;;;;;;;5096063;28;20459;-91
2022/03/22 01:48:01;;;;;;;0.20;0.13;;;;;;;;;;5079225;28;20088;-92
2022/03/22 01:50:27;;;;;;;0.30;0.30;;;;;;;;;;5079412;28;20489;-92
2022/03/22 01:52:53;;;;;;;0.10;0.10;;;;;;;;;;5079422;28;20028;-91
2022/03/22 01:55:20;;;;;;;0.30;0.30;;;;;;;;;;5096542;28;20044;-92
2022/03/22 01:57:46;;;;;;;0.10;0.10;;;;;;;;;;5095698;28;20040;-90
2022/03/22 02:00:13;;;;;;;0.10;0.10;;;;;;;;;;5078381;28;20410;-90
2022/03/22 02:08:10;;;;;;;0.10;0.10;;;;;;;;;;5112152;28;20047;-90
2022/03/22 02:10:36;;;;;;;0.05;0.05;;;;;;;;;;5078568;28;20070;-93
2022/03/22 02:13:02;;;;;;;0.20;0.20;;;;;;;;;;5080417;28;20075;-92
2022/03/22 02:15:28;;;;;;;0.10;0.10;;;;;;;;;;5079017;28;20386;-92
2022/03/22 02:17:54;;;;;;;0.10;0.10;;;;;;;;;;5095938;28;20108;-92
2022/03/22 02:20:20;;;;;;;0.40;0.40;;;;;;;;;;5095816;28;20088;-91
2022/03/22 02:22:49;;;;;;;0.10;0.10;;;;;;;;;;5078877;28;20040;-90
2022/03/22 02:25:15;;;;;;;0.30;0.30;;;;;;;;;;5112212;28;20036;-91
2022/03/22 02:27:44;;;;;;;0.52;0.52;;;;;;;;;;5095308;28;20130;-91
2022/03/22 02:30:10;;;;;;;0.10;0.10;;;;;;;;;;5098681;28;20032;-91
2022/03/22 02:32:36;;;;;;;0.10;0.10;;;;;;;;;;5099295;28;20047;-90
2022/03/22 02:35:04;;;;;;;0.10;0.10;;;;;;;;;;5082049;28;20040;-91
2022/03/22 02:37:31;;;;;;;0.10;0.10;;;;;;;;;;5083131;28;20096;-92
2022/03/22 02:39:57;;;;;;;3.20;0.25;;;;;;;;;;5082392;28;20039;-91
2022/03/22 02:42:22;;;;;;;0.10;0.10;;;;;;;;;;5082147;28;20058;-91
2022/03/22 02:44:48;;;;;;;0.10;0.10;;;;;;;;;;5082051;28;20044;-91
2022/03/22 02:47:14;;;;;;;0.10;0.10;;;;;;;;;;5081773;28;20091;-91
2022/03/22 02:49:40;;;;;;;0.10;0.10;;;;;;;;;;5098741;28;20047;-90
2022/03/22 02:52:06;;;;;;;0.10;0.10;;;;;;;;;;5115618;28;20051;-90
2022/03/22 02:54:32;;;;;;;0.10;0.10;;;;;;;;;;5098875;28;20039;-91
2022/03/22 02:56:58;;;;;;;0.10;0.10;;;;;;;;;;5082179;28;20092;-90
2022/03/22 02:59:24;;;;;;;0.10;0.10;;;;;;;;;;5098786;28;20040;-91
2022/03/22 03:01:51;;;;;;;0.10;0.10;;;;;;;;;;5098575;28;20051;-90
2022/03/22 03:04:17;;;;;;;0.10;0.10;;;;;;;;;;5082003;28;20410;-90
2022/03/22 03:06:43;;;;;;;0.10;0.10;;;;;;;;;;5115392;28;20501;-90
2022/03/22 03:09:10;;;;;;;0.10;0.10;;;;;;;;;;5081458;28;20031;-90
2022/03/22 03:11:36;;;;;;;0.43;0.17;;;;;;;;;;5081809;28;20067;-90
2022/03/22 03:16:47;;;;;;;0.45;0.22;;;;;;;;;;5115525;28;20047;-91
2022/03/22 03:19:13;;;;;;;0.10;0.10;;;;;;;;;;5082444;28;20463;-92
2022/03/22 03:21:39;;;;;;;0.10;0.10;;;;;;;;;;5098935;28;20116;-92
2022/03/22 03:24:07;;;;;;;0.10;0.10;;;;;;;;;;5115757;28;20078;-92
2022/03/22 03:26:34;;;;;;;0.10;0.10;;;;;;;;;;5081790;28;20109;-91
2022/03/22 03:28:59;;;;;;;0.10;0.10;;;;;;;;;;5098653;28;20039;-91
2022/03/22 03:31:26;;;;;;;0.10;0.10;;;;;;;;;;5081824;28;20558;-92
2022/03/22 03:33:53;;;;;;;0.10;0.10;;;;;;;;;;5098559;28;20036;-90
2022/03/22 03:36:20;;;;;;;0.10;0.10;;;;;;;;;;5114512;28;20073;-91
2022/03/22 03:38:46;;;;;;;0.10;0.10;;;;;;;;;;5098839;28;20043;-90
2022/03/22 03:43:57;;;;;;;0.10;0.10;;;;;;;;;;5100910;28;20078;-90
2022/03/22 03:49:08;;;;;;;0.10;0.10;;;;;;;;;;5114955;28;20052;-92
2022/03/22 03:51:35;;;;;;;0.20;0.20;;;;;;;;;;5081530;28;20071;-91
2022/03/22 03:54:01;;;;;;;0.10;0.10;;;;;;;;;;5098301;28;20044;-91
2022/03/22 03:56:27;;;;;;;0.10;0.10;;;;;;;;;;5098363;28;20044;-92
2022/03/22 03:58:56;;;;;;;0.15;0.15;;;;;;;;;;5098321;28;20039;-92
2022/03/22 04:01:22;;;;;;;0.47;0.35;;;;;;;;;;5098406;28;20050;-91
2022/03/22 04:03:48;;;;;;;0.10;0.10;;;;;;;;;;5080887;28;20494;-91
2022/03/22 04:06:15;;;;;;;0.10;0.10;;;;;;;;;;5081166;28;20039;-91
2022/03/22 04:08:41;;;;;;;0.10;0.10;;;;;;;;;;5114781;28;20483;-92
2022/03/22 04:11:06;;;;;;;0.10;0.10;;;;;;;;;;5080953;28;20131;-91
2022/03/22 04:13:35;;;;;;;0.10;0.10;;;;;;;;;;5097705;28;20559;-92
2022/03/22 04:16:01;;;;;;;0.10;0.10;;;;;;;;;;5081526;28;20058;-92
2022/03/22 04:18:27;;;;;;;0.10;0.10;;;;;;;;;;5080740;28;20039;-93
2022/03/22 04:20:53;;;;;;;0.20;0.20;;;;;;;;;;5114670;28;20035;-92
2022/03/22 04:23:19;;;;;;;0.10;0.10;;;;;;;;;;5080772;28;20390;-91
2022/03/22 04:25:45;;;;;;;0.10;0.10;;;;;;;;;;5097024;28;20425;-91
2022/03/22 04:33:40;;;;;;;0.10;0.10;;;;;;;;;;5099782;28;20035;-92
2022/03/22 04:36:06;;;;;;;0.10;0.10;;;;;;;;;;5096747;28;20040;-92
2022/03/22 04:38:34;;;;;;;0.10;0.10;;;;;;;;;;5096674;28;20494;-92
2022/03/22 04:41:00;;;;;;;0.10;0.10;;;;;;;;;;5080563;28;20036;-91
2022/03/22 04:43:26;;;;;;;0.10;0.10;;;;;;;;;;5080803;28;20483;-92
2022/03/22 04:45:52;;;;;;;0.10;0.10;;;;;;;;;;5097055;28;20069;-92
2022/03/22 04:48:19;;;;;;;0.10;0.10;;;;;;;;;;5080255;28;20052;-92
2022/03/22 04:50:45;;;;;;;0.10;0.10;;;;;;;;;;5079889;28;20043;-94
2022/03/22 04:58:40;;;;;;;0.20;0.20;;;;;;;;;;5099759;28;20475;-94
2022/03/22 05:01:06;;;;;;;0.10;0.10;;;;;;;;;;5080410;28;20177;-93
2022/03/22 05:03:32;;;;;;;0.22;0.22;;;;;;;;;;5096837;28;20118;-93
2022/03/22 05:08:42;;;;;;;0.10;0.10;;;;;;;;;;5099365;28;20406;-93
2022/03/22 05:11:08;;;;;;;0.10;0.10;;;;;;;;;;5079827;28;20035;-93
2022/03/22 05:13:35;;;;;;;0.10;0.10;;;;;;;;;;5080293;28;20196;-93
2022/03/22 05:16:00;;;;;;;0.10;0.10;;;;;;;;;;5113758;28;20176;-92
2022/03/22 05:18:26;;;;;;;0.10;0.10;;;;;;;;;;5113501;28;20077;-93
2022/03/22 05:20:53;;;;;;;0.10;0.10;;;;;;;;;;5096340;28;20475;-93
2022/03/22 05:23:19;;;;;;;0.20;0.20;;;;;;;;;;5079969;28;20062;-93
2022/03/22 05:25:45;;;;;;;0.10;0.10;;;;;;;;;;5096812;28;20035;-93
2022/03/22 05:28:11;;;;;;;0.10;0.10;;;;;;;;;;5096605;28;20043;-93
2022/03/22 05:30:37;;;;;;;0.10;0.10;;;;;;;;;;5095668;28;20126;-91
2022/03/22 05:33:03;;;;;;;0.10;0.10;;;;;;;;;;5096010;28;20039;-92
2022/03/22 05:35:29;;;;;;;0.13;0.13;;;;;;;;;;5079596;28;20040;-93
2022/03/22 05:37:55;;;;;;;0.10;0.10;;;;;;;;;;5079704;28;20399;-93
2022/03/22 05:40:21;;;;;;;0.13;0.10;;;;;;;;;;5096363;28;20046;-93
2022/03/22 05:42:48;;;;;;;0.10;0.10;;;;;;;;;;5096619;28;20044;-93
2022/03/22 05:45:14;;;;;;;0.10;0.10;;;;;;;;;;5081115;28;20120;-93
2022/03/22 05:47:40;;;;;;;0.10;0.10;;;;;;;;;;5080239;28;20055;-93
2022/03/22 05:50:06;;;;;;;0.10;0.10;;;;;;;;;;5096497;28;20040;-94
2022/03/22 05:52:32;;;;;;;0.38;0.20;;;;;;;;;;5096436;28;20040;-93
2022/03/22 05:54:58;;;;;;;0.10;0.10;;;;;;;;;;5096089;28;20032;-93
2022/03/22 05:57:24;;;;;;;0.20;0.20;;;;;;;;;;5112706;28;20131;-91
2022/03/22 05:59:50;;;;;;;0.10;0.10;;;;;;;;;;5078847;28;20050;-91
2022/03/22 06:02:16;;;;;;;0.10;0.10;;;;;;;;;;5095944;28;20043;-91
2022/03/22 06:04:42;;;;;;;0.10;0.10;;;;;;;;;;5099771;28;20069;-92
2022/03/22 06:07:08;;;;;;;0.00;0.00;;;;;;;;;;5083380;28;20040;-91
2022/03/22 06:09:34;;;;;;;0.10;0.10;;;;;;;;;;5110980;28;20048;-93
2022/03/22 06:12:00;;;;;;;0.10;0.10;;;;;;;;;;5083142;28;20093;-92
2022/03/22 06:14:26;;;;;;;0.28;0.28;;;;;;;;;;5099986;28;20075;-94
2022/03/22 06:16:52;;;;;;;0.35;0.35;;;;;;;;;;5083405;28;20050;-93
2022/03/22 06:19:18;;;;;;;0.10;0.10;;;;;;;;;;5100463;28;20039;-93
2022/03/22 06:21:44;;;;;;;0.10;0.10;;;;;;;;;;5100180;28;20089;-92
2022/03/22 06:24:10;;;;;;;0.10;0.10;;;;;;;;;;5099805;28;20040;-91
2022/03/22 06:26:37;;;;;;;0.17;0.17;;;;;;;;;;5116535;28;20509;-93
2022/03/22 06:29:02;;;;;;;0.10;0.10;;;;;;;;;;5099994;28;20040;-93
2022/03/22 06:31:33;;;;;;;0.10;0.10;;;;;;;;;;5100584;28;20036;-94
2022/03/22 06:34:00;;;;;;;0.35;0.13;;;;;;;;;;5117033;28;20104;-91
2022/03/22 06:36:27;;;;;;;0.10;0.10;;;;;;;;;;5083050;28;20042;-93
2022/03/22 06:38:53;;;;;;;0.10;0.10;;;;;;;;;;5083286;28;20090;-92
2022/03/22 06:41:19;;;;;;;0.10;0.10;;;;;;;;;;5082244;28;20062;-90
2022/03/22 06:43:45;;;;;;;0.10;0.10;;;;;;;;;;5099471;28;20058;-92
2022/03/22 06:46:11;;;;;;;0.10;0.10;;;;;;;;;;5099293;28;20047;-93
2022/03/22 06:48:37;;;;;;;0.57;0.57;;;;;;;;;;5099863;28;20050;-92
2022/03/22 06:51:03;;;;;;;0.20;0.20;;;;;;;;;;5098190;28;20398;-91
2022/03/22 06:53:29;;;;;;;0.20;0.10;;;;;;;;;;5082189;28;20036;-91
2022/03/22 06:55:55;;;;;;;0.10;0.10;;;;;;;;;;5082202;28;20084;-91
2022/03/22 06:58:24;;;;;;;0.10;0.10;;;;;;;;;;5099342;28;20497;-91
2022/03/22 07:00:50;;;;;;;0.10;0.10;;;;;;;;;;5082533;28;20043;-91
2022/03/22 07:03:16;;;;;;;0.10;0.10;;;;;;;;;;5098775;28;20043;-92
2022/03/22 07:05:45;;;;;;;0.10;0.10;;;;;;;;;;5098772;28;20124;-93
2022/03/22 07:08:11;;;;;;;0.13;0.13;;;;;;;;;;5082229;28;20406;-92
2022/03/22 07:10:37;;;;;;;0.10;0.10;;;;;;;;;;5098994;28;20054;-92
2022/03/22 07:13:06;;;;;;;0.10;0.10;;;;;;;;;;5081899;28;20039;-92
2022/03/22 07:15:34;;;;;;;0.52;0.52;;;;;;;;;;5081334;28;20172;-90
2022/03/22 07:18:00;;;;;;;0.25;0.10;;;;;;;;;;5099430;28;20554;-92
2022/03/22 07:20:26;;;;;;;0.10;0.10;;;;;;;;;;5098869;28;20078;-91
2022/03/22 07:22:52;;;;;;;0.10;0.10;;;;;;;;;;5098401;28;20114;-91
2022/03/22 07:25:18;;;;;;;0.10;0.10;;;;;;;;;;5098749;28;20044;-95
2022/03/22 07:27:44;;;;;;;0.43;0.28;;;;;;;;;;5098888;28;20039;-92
2022/03/22 07:30:12;;;;;;;0.17;0.17;;;;;;;;;;5115802;28;20039;-91
2022/03/22 07:32:41;;;;;;;0.73;0.43;;;;;;;;;;5098753;28;20083;-93
2022/03/22 07:35:07;;;;;;;0.47;0.30;;;;;;;;;;5114656;28;20110;-91
2022/03/22 07:37:34;;;;;;;0.20;0.20;;;;;;;;;;5081431;28;20039;-93
2022/03/22 07:40:00;;;;;;;0.10;0.10;;;;;;;;;;5082524;28;20088;-93
2022/03/22 07:42:29;;;;;;;0.13;0.13;;;;;;;;;;5098163;28;20088;-91
2022/03/22 07:45:01;;;;;;;0.10;0.10;;;;;;;;;;5098215;28;20078;-92
2022/03/22 07:47:28;;;;;;;0.20;0.20;;;;;;;;;;5116036;27;20055;-95
2022/03/22 07:55:23;;;;;;;0.45;0.45;;;;;;;;;;5120719;27;20047;-92
2022/03/22 07:57:49;;;;;;;0.10;0.10;;;;;;;;;;5101485;27;20118;-90
2022/03/22 08:00:18;;;;;;;0.13;0.13;;;;;;;;;;5101089;27;20053;-91
2022/03/22 08:02:51;;;;;;;1.27;0.95;;;;;;;;;;5135715;27;20043;-92
2022/03/22 08:05:17;;;;;;;0.20;0.20;;;;;;;;;;5101558;27;20045;-92
2022/03/22 08:07:43;;;;;;;1.10;0.98;;;;;;;;;;5101418;27;20397;-92
2022/03/22 08:10:09;;;;;;;0.10;0.10;;;;;;;;;;5118507;27;20500;-92
2022/03/22 08:12:35;;;;;;;0.10;0.10;;;;;;;;;;5118368;27;20046;-92
2022/03/22 08:15:02;;;;;;;0.45;0.30;;;;;;;;;;5101136;27;20035;-93
2022/03/22 08:17:28;;;;;;;0.10;0.10;;;;;;;;;;5100468;27;20050;-91
2022/03/22 08:19:54;;;;;;;0.20;0.20;;;;;;;;;;5117681;27;20046;-93
2022/03/22 08:22:20;;;;;;;0.10;0.10;;;;;;;;;;5117575;27;20118;-92
2022/03/22 08:24:46;;;;;;;0.10;0.10;;;;;;;;;;5117196;27;20039;-88
2022/03/22 08:27:12;;;;;;;0.20;0.20;;;;;;;;;;5116107;27;20042;-89
2022/03/22 08:29:38;;;;;;;0.10;0.10;;;;;;;;;;5117020;27;20035;-90
2022/03/22 08:32:04;;;;;;;0.10;0.10;;;;;;;;;;5118549;27;20450;-89
2022/03/22 08:34:30;;;;;;;1.75;0.30;;;;;;;;;;5118442;27;20087;-90
2022/03/22 08:36:56;;;;;;;0.10;0.10;;;;;;;;;;5117971;27;20039;-90
2022/03/22 08:39:22;;;;;;;0.10;0.10;;;;;;;;;;5100454;27;20039;-90
2022/03/22 08:41:52;;;;;;;1.55;0.32;;;;;;;;;;5117503;27;20100;-90
2022/03/22 08:44:20;;;;;;;0.10;0.10;;;;;;;;;;5134176;27;20431;-91
2022/03/22 08:46:46;;;;;;;0.10;0.10;;;;;;;;;;5116705;27;20069;-92
2022/03/22 08:49:12;;;;;;;0.30;0.30;;;;;;;;;;5134152;27;20049;-92
2022/03/22 08:51:38;;;;;;;0.10;0.10;;;;;;;;;;5117055;27;20050;-92
2022/03/22 08:54:06;;;;;;;0.10;0.10;;;;;;;;;;5117294;27;20083;-89
2022/03/22 08:56:32;;;;;;;0.10;0.10;;;;;;;;;;5116962;27;20108;-91
2022/03/22 08:58:58;;;;;;;0.10;0.10;;;;;;;;;;5116572;27;20043;-90
2022/03/22 09:01:24;;;;;;;0.10;0.10;;;;;;;;;;5116531;27;20047;-92
2022/03/22 09:06:07;;;;;;;0.10;0.10;;;;;;;;;;5117768;27;20046;-94
2022/03/22 09:06:39;;;;;;;0.20;0.20;;;;;;;;;;5119634;27;20047;-94
2022/03/22 09:09:05;;;;;;;0.10;0.10;;;;;;;;;;5100911;27;20050;-94
2022/03/22 09:11:33;;;;;;;0.10;0.10;;;;;;;;;;5100933;27;20100;-94
2022/03/22 09:14:00;;;;;;;0.10;0.10;;;;;;;;;;5101152;27;20050;-93
2022/03/22 09:16:26;;;;;;;0.10;0.10;;;;;;;;;;5116360;27;20031;-92
2022/03/22 09:18:52;;;;;;;0.10;0.10;;;;;;;;;;5100191;27;20031;-92
2022/03/22 09:21:18;;;;;;;0.10;0.10;;;;;;;;;;5117313;27;20099;-94
2022/03/22 09:23:44;;;;;;;0.10;0.10;;;;;;;;;;5100092;27;20050;-92
2022/03/22 09:26:10;;;;;;;0.10;0.10;;;;;;;;;;5099505;27;20053;-91
2022/03/22 09:28:37;;;;;;;0.10;0.10;;;;;;;;;;5127676;27;20398;-94
2022/03/22 09:31:04;;;;;;;0.10;0.10;;;;;;;;;;5091596;27;20039;-94
2022/03/22 09:33:30;;;;;;;0.20;0.20;;;;;;;;;;5116956;27;20088;-95
2022/03/22 09:35:57;;;;;;;0.20;0.20;;;;;;;;;;5133815;27;20035;-93
2022/03/22 09:38:24;;;;;;;0.10;0.10;;;;;;;;;;5100441;27;20397;-94
2022/03/22 09:40:52;;;;;;;0.20;0.20;;;;;;;;;;5117096;28;20043;-94
2022/03/22 09:43:18;;;;;;;0.10;0.10;;;;;;;;;;5116819;28;20104;-93
2022/03/22 09:45:45;;;;;;;0.17;0.17;;;;;;;;;;5116851;28;20038;-93
2022/03/22 09:48:12;;;;;;;0.10;0.10;;;;;;;;;;5082756;28;20055;-93
2022/03/22 09:53:22;;;;;;;0.10;0.10;;;;;;;;;;5119366;28;20043;-93
2022/03/22 09:55:48;;;;;;;0.10;0.10;;;;;;;;;;5099856;28;20038;-92
2022/03/22 09:58:14;;;;;;;0.10;0.10;;;;;;;;;;5099556;28;20039;-93
2022/03/22 10:00:40;;;;;;;0.25;0.22;;;;;;;;;;5116881;28;20046;-92
2022/03/22 10:03:06;;;;;;;0.20;0.20;;;;;;;;;;5098790;28;20039;-94
2022/03/22 10:05:34;;;;;;;0.20;0.20;;;;;;;;;;5115645;28;20039;-90
2022/03/22 10:08:00;;;;;;;0.10;0.10;;;;;;;;;;5098450;28;20622;-90
2022/03/22 10:10:27;;;;;;;0.10;0.10;;;;;;;;;;5098799;28;20077;-91
2022/03/22 10:12:57;;;;;;;0.10;0.10;;;;;;;;;;5098543;28;20046;-90
2022/03/22 10:15:28;;;;;;;0.10;0.10;;;;;;;;;;5098708;28;20446;-91
2022/03/22 10:18:00;;;;;;;0.15;0.15;;;;;;;;;;5098963;28;20066;-90
2022/03/22 10:20:26;;;;;;;0.10;0.10;;;;;;;;;;5099013;28;20555;-91
2022/03/22 10:22:56;;;;;;;0.20;0.20;;;;;;;;;;5098805;28;20090;-92
2022/03/22 10:25:22;;;;;;;0.10;0.10;;;;;;;;;;5115575;28;20039;-90
2022/03/22 10:27:47;;;;;;;0.10;0.10;;;;;;;;;;5115819;28;20130;-88
2022/03/22 10:30:17;;;;;;;0.10;0.10;;;;;;;;;;5132207;28;20031;-89
2022/03/22 10:32:44;;;;;;;0.20;0.20;;;;;;;;;;5096885;28;20065;-89
2022/03/22 10:35:10;;;;;;;0.22;0.22;;;;;;;;;;5098428;28;20428;-89
2022/03/22 10:37:37;;;;;;;0.10;0.10;;;;;;;;;;5132062;28;20046;-89
2022/03/22 10:40:03;;;;;;;0.20;0.20;;;;;;;;;;5115065;28;20039;-88
2022/03/22 10:42:29;;;;;;;0.10;0.10;;;;;;;;;;5114859;28;20039;-91
2022/03/22 10:44:58;;;;;;;0.10;0.10;;;;;;;;;;5097989;28;20050;-89
2022/03/22 10:47:25;;;;;;;0.10;0.10;;;;;;;;;;5114252;28;20428;-89
2022/03/22 10:50:07;;;;;;;0.30;0.30;;;;;;;;;;5115549;27;20490;-86
2022/03/22 10:52:33;;;;;;;0.20;0.20;;;;;;;;;;5135815;27;20047;-89
2022/03/22 10:54:59;;;;;;;0.10;0.10;;;;;;;;;;5118127;27;20039;-90
2022/03/22 10:57:32;;;;;;;0.10;0.10;;;;;;;;;;5102000;27;20043;-91
2022/03/22 10:59:59;;;;;;;0.20;0.20;;;;;;;;;;5103197;27;20039;-93
2022/03/22 11:02:25;;;;;;;0.10;0.10;;;;;;;;;;5101791;27;20091;-91
2022/03/22 11:04:51;;;;;;;0.32;0.25;;;;;;;;;;5101309;27;20103;-89
2022/03/22 11:07:17;;;;;;;0.10;0.10;;;;;;;;;;5117914;27;20490;-89
2022/03/22 11:09:43;;;;;;;0.10;0.10;;;;;;;;;;5118237;27;20088;-89
2022/03/22 11:12:10;;;;;;;0.10;0.10;;;;;;;;;;5118233;27;20054;-89
2022/03/22 11:14:36;;;;;;;0.10;0.10;;;;;;;;;;5101157;27;20166;-89
2022/03/22 11:17:02;;;;;;;0.10;0.10;;;;;;;;;;5135271;27;20047;-90
2022/03/22 11:19:28;;;;;;;0.20;0.20;;;;;;;;;;5118321;27;20064;-91
2022/03/22 11:22:03;;;;;;;0.10;0.10;;;;;;;;;;5101302;27;20035;-89
2022/03/22 11:24:29;;;;;;;0.20;0.20;;;;;;;;;;5101248;27;20127;-91
2022/03/22 11:26:58;;;;;;;0.10;0.10;;;;;;;;;;5118213;27;20457;-90
2022/03/22 11:29:27;;;;;;;0.15;0.15;;;;;;;;;;5118135;27;20042;-90
2022/03/22 11:34:38;;;;;;;0.10;0.10;;;;;;;;;;5120934;27;20403;-89
2022/03/22 11:37:04;;;;;;;0.30;0.30;;;;;;;;;;5118852;27;20027;-96
2022/03/22 11:42:17;;;;;;;0.10;0.10;;;;;;;;;;5135194;27;20482;-90
2022/03/22 11:44:53;;;;;;;0.30;0.30;;;;;;;;;;5135308;27;20070;-90
2022/03/22 11:47:19;;;;;;;0.32;0.32;;;;;;;;;;5134746;27;20047;-90
2022/03/22 11:49:48;;;;;;;0.10;0.10;;;;;;;;;;5134956;27;20070;-91
2022/03/22 11:52:14;;;;;;;0.30;0.30;;;;;;;;;;5135271;27;20031;-90
2022/03/22 11:54:41;;;;;;;0.20;0.20;;;;;;;;;;5117360;27;20389;-89
2022/03/22 11:57:07;;;;;;;0.28;0.28;;;;;;;;;;5117444;27;20051;-91
2022/03/22 11:59:41;;;;;;;0.40;0.40;;;;;;;;;;5117609;27;20035;-90
2022/03/22 12:02:10;;;;;;;0.20;0.20;;;;;;;;;;5117338;27;20047;-91
2022/03/22 12:04:40;;;;;;;0.22;0.22;;;;;;;;;;5117140;27;20548;-90
2022/03/22 12:07:07;;;;;;;0.40;0.40;;;;;;;;;;5117978;27;20397;-90
2022/03/22 12:09:34;;;;;;;0.38;0.38;;;;;;;;;;5117747;27;20112;-91
2022/03/22 12:12:01;;;;;;;0.38;0.38;;;;;;;;;;5100478;27;20357;-91
2022/03/22 12:14:28;;;;;;;0.10;0.10;;;;;;;;;;5117406;27;20045;-90
2022/03/22 12:16:54;;;;;;;0.20;0.20;;;;;;;;;;5116666;27;20041;-90
2022/03/22 12:19:47;;;;;;;0.35;0.35;;;;;;;;;;5100053;27;20046;-90
2022/03/22 12:22:13;;;;;;;;;;;;;;;;;;5114103;27;20409;-90
2022/03/22 12:24:39;;;;;;;0.10;0.10;;;;;;;;;;5117270;27;20266;-90
2022/03/22 12:27:09;;;;;;;0.20;0.20;;;;;;;;;;5100255;27;20039;-91
2022/03/22 12:29:38;;;;;;;0.15;0.15;;;;;;;;;;5116841;27;20490;-90
2022/03/22 12:32:07;;;;;;;0.10;0.10;;;;;;;;;;5116459;27;20126;-89
2022/03/22 12:34:36;;;;;;;1.13;0.88;;;;;;;;;;5116913;27;20031;-90
2022/03/22 12:37:03;;;;;;;0.30;0.30;;;;;;;;;;5117071;27;20106;-90
2022/03/22 12:39:29;;;;;;;0.25;0.25;;;;;;;;;;5117134;27;20070;-90
2022/03/22 12:41:57;;;;;;;0.20;0.20;;;;;;;;;;5133648;27;20470;-90
2022/03/22 12:44:25;;;;;;;0.10;0.10;;;;;;;;;;5116990;27;20402;-90
2022/03/22 12:46:53;;;;;;;0.25;0.25;;;;;;;;;;5099637;27;20062;-91
2022/03/22 12:49:20;;;;;;;0.10;0.10;;;;;;;;;;5099783;27;20042;-90
2022/03/22 12:51:47;;;;;;;0.20;0.20;;;;;;;;;;5095918;28;20040;-89
2022/03/22 12:54:17;;;;;;;0.20;0.20;;;;;;;;;;5089321;27;20482;-90
2022/03/22 12:56:47;;;;;;;0.20;0.20;;;;;;;;;;5116600;27;20455;-90
2022/03/22 12:59:23;;;;;;;0.40;0.40;;;;;;;;;;5117028;27;20055;-91
2022/03/22 13:01:58;;;;;;;0.22;0.22;;;;;;;;;;5116879;27;20039;-90
2022/03/22 13:04:31;;;;;;;0.50;0.50;;;;;;;;;;5117158;27;20043;-90
2022/03/22 13:07:01;;;;;;;0.63;0.57;;;;;;;;;;5099940;27;20075;-90
2022/03/22 13:12:12;;;;;;;0.73;0.73;;;;;;;;;;5118191;27;20075;-90
2022/03/22 13:17:23;;;;;;;0.40;0.40;;;;;;;;;;5118574;27;20457;-88
2022/03/22 13:19:50;;;;;;;0.20;0.20;;;;;;;;;;5132668;27;20051;-88
2022/03/22 13:22:17;;;;;;;0.68;0.20;;;;;;;;;;5116156;27;20035;-89
2022/03/22 13:24:43;;;;;;;0.90;0.45;;;;;;;;;;5132260;27;20103;-88
2022/03/22 13:27:10;;;;;;;0.22;0.20;;;;;;;;;;5132514;27;20043;-89
2022/03/22 13:29:40;;;;;;;0.47;0.47;;;;;;;;;;5132624;27;20125;-88
2022/03/22 13:32:07;;;;;;;0.15;0.15;;;;;;;;;;5115390;27;20039;-88
2022/03/22 13:34:33;;;;;;;0.20;0.20;;;;;;;;;;5115203;27;20466;-89
2022/03/22 13:37:05;;;;;;;0.55;0.55;;;;;;;;;;5098535;27;20087;-88
2022/03/22 13:39:31;;;;;;;0.20;0.20;;;;;;;;;;5115096;27;20043;-90
2022/03/22 13:42:10;;;;;;;0.43;0.35;;;;;;;;;;5098760;27;20050;-89
2022/03/22 13:44:43;;;;;;;0.10;0.10;;;;;;;;;;5115435;28;20043;-89
2022/03/22 13:47:09;;;;;;;0.63;0.63;;;;;;;;;;5097680;28;20081;-89
2022/03/22 13:49:35;;;;;;;1.00;0.85;;;;;;;;;;5115245;27;20046;-89
2022/03/22 13:52:03;;;;;;;0.50;0.30;;;;;;;;;;5097768;28;20075;-88
2022/03/22 13:54:29;;;;;;;0.20;0.20;;;;;;;;;;5115324;28;20035;-89
2022/03/22 13:57:06;;;;;;;0.25;0.25;;;;;;;;;;5115809;28;20106;-91
2022/03/22 13:59:41;;;;;;;0.10;0.10;;;;;;;;;;5098556;28;20065;-90
2022/03/22 14:02:08;;;;;;;0.15;0.15;;;;;;;;;;5098575;28;20042;-90
2022/03/22 14:04:34;;;;;;;0.20;0.20;;;;;;;;;;5098686;28;20043;-89
2022/03/22 14:07:01;;;;;;;0.20;0.20;;;;;;;;;;5115224;28;20085;-90
2022/03/22 14:09:27;;;;;;;0.52;0.38;;;;;;;;;;5131615;28;20039;-88
2022/03/22 14:11:53;;;;;;;0.13;0.13;;;;;;;;;;5131866;28;20130;-90
2022/03/22 14:14:19;;;;;;;0.10;0.10;;;;;;;;;;5114911;28;20060;-87
2022/03/22 14:16:45;;;;;;;0.10;0.10;;;;;;;;;;5097822;28;20035;-88
2022/03/22 14:19:13;;;;;;;0.20;0.20;;;;;;;;;;5094196;28;20039;-88
2022/03/22 14:21:39;;;;;;;0.20;0.20;;;;;;;;;;5094976;28;20398;-88
2022/03/22 14:24:06;;;;;;;0.20;0.20;;;;;;;;;;5095215;27;20443;-90
2022/03/22 14:26:31;;;;;;;0.20;0.20;;;;;;;;;;5118321;27;20156;-88
2022/03/22 14:28:58;;;;;;;0.20;0.20;;;;;;;;;;5101548;27;20524;-88
2022/03/22 14:31:23;;;;;;;0.57;0.20;;;;;;;;;;5135505;27;20092;-88
2022/03/22 14:33:52;;;;;;;0.52;0.32;;;;;;;;;;5118873;27;20498;-88
2022/03/22 14:36:18;;;;;;;0.25;0.20;;;;;;;;;;5137150;27;20035;-88
2022/03/22 14:38:44;;;;;;;0.13;0.13;;;;;;;;;;5104118;27;20047;-88
2022/03/22 14:41:25;;;;;;;0.10;0.10;;;;;;;;;;5103063;27;20042;-88
2022/03/22 14:43:54;;;;;;;0.10;0.10;;;;;;;;;;5121439;27;20444;-87
2022/03/22 14:46:21;;;;;;;0.10;0.10;;;;;;;;;;5118205;27;20085;-87
2022/03/22 14:48:50;;;;;;;0.93;0.73;;;;;;;;;;5101294;27;20039;-88
2022/03/22 14:51:18;;;;;;;1.80;0.95;;;;;;;;;;5135063;27;20074;-88
2022/03/22 14:54:02;;;;;;;0.70;0.70;;;;;;;;;;5101257;27;20520;-87
2022/03/22 14:59:13;;;;;;;0.10;0.10;;;;;;;;;;5121455;27;20039;-90
2022/03/22 15:01:39;;;;;;;0.20;0.20;;;;;;;;;;5101491;27;20061;-89
2022/03/22 15:04:05;;;;;;;0.10;0.10;;;;;;;;;;5101697;27;20042;-90
2022/03/22 15:06:32;;;;;;;0.10;0.10;;;;;;;;;;5134966;27;20096;-90
2022/03/22 15:08:58;;;;;;;0.10;0.10;;;;;;;;;;5118429;27;20039;-90
2022/03/22 15:11:24;;;;;;;0.10;0.10;;;;;;;;;;5118732;27;20039;-90
2022/03/22 15:13:51;;;;;;;1.38;0.40;;;;;;;;;;5118706;27;20077;-90
2022/03/22 15:16:20;;;;;;;0.20;0.20;;;;;;;;;;5101267;27;20039;-90
2022/03/22 15:18:46;;;;;;;0.30;0.30;;;;;;;;;;5118292;27;20031;-90
2022/03/22 15:21:12;;;;;;;0.43;0.43;;;;;;;;;;5118254;27;20083;-90
2022/03/22 15:23:38;;;;;;;0.20;0.20;;;;;;;;;;5118303;27;20486;-90
2022/03/22 15:26:06;;;;;;;0.20;0.20;;;;;;;;;;5101037;27;20035;-90
2022/03/22 15:28:34;;;;;;;0.20;0.20;;;;;;;;;;5101171;27;20447;-90
2022/03/22 15:31:00;;;;;;;0.20;0.20;;;;;;;;;;5101590;27;20054;-90
2022/03/22 15:33:26;;;;;;;0.10;0.10;;;;;;;;;;5101349;27;20471;-94